Time;durP1;ratioP1;P1;durP2;ratioP2;P2;SDS_P1;SDS_P2;PMS_P1;PMS_P2;Temp;Humidity;BMP_temperature;BMP_pressure;BME280_temperature;BME280_humidity;BME280_pressure;Samples;Min_cycle;Max_cycle;Signal;HPM_P1;HPM_P2
2023/04/23 00:02:32;;;;;;;67.10;24.15;;;8.60;99.90;;;;;;5032364;28;20037;-71
2023/04/23 00:05:03;;;;;;;62.30;24.27;;;8.60;99.90;;;;;;5023837;28;20433;-70
2023/04/23 00:07:35;;;;;;;59.65;22.75;;;8.60;99.90;;;;;;5032857;28;20038;-72
2023/04/23 00:10:04;;;;;;;71.57;25.10;;;8.60;99.90;;;;;;5058264;28;20041;-71
2023/04/23 00:12:31;;;;;;;63.35;23.15;;;8.60;99.90;;;;;;5035178;28;20045;-71
2023/04/23 00:14:57;;;;;;;58.72;22.55;;;8.60;99.90;;;;;;5037811;28;20045;-70
2023/04/23 00:17:26;;;;;;;64.45;23.65;;;8.60;99.90;;;;;;5047769;28;20477;-70
2023/04/23 00:19:52;;;;;;;71.57;25.30;;;8.60;99.90;;;;;;5038338;28;20045;-71
2023/04/23 00:22:20;;;;;;;64.13;23.60;;;8.60;99.90;;;;;;5042644;28;20033;-70
2023/04/23 00:24:46;;;;;;;59.92;22.55;;;8.60;99.90;;;;;;5048806;28;20082;-71
2023/04/23 00:27:16;;;;;;;72.75;25.25;;;8.70;99.90;;;;;;5037459;28;20029;-70
2023/04/23 00:29:45;;;;;;;61.75;25.05;;;8.60;99.90;;;;;;5030448;28;20436;-71
2023/04/23 00:32:17;;;;;;;63.97;24.00;;;8.70;99.90;;;;;;5044987;28;20040;-70
2023/04/23 00:34:43;;;;;;;62.05;23.58;;;8.60;99.90;;;;;;5033124;28;20045;-71
2023/04/23 00:37:15;;;;;;;67.28;25.13;;;8.70;99.90;;;;;;5034933;28;20064;-70
2023/04/23 00:39:40;;;;;;;67.00;23.90;;;8.70;99.90;;;;;;5043890;28;20091;-71
2023/04/23 00:42:11;;;;;;;62.67;23.10;;;8.70;99.90;;;;;;5037763;28;20037;-70
2023/04/23 00:44:38;;;;;;;64.63;23.75;;;8.70;99.90;;;;;;5042641;28;20461;-71
2023/04/23 00:47:06;;;;;;;60.55;23.92;;;8.70;99.90;;;;;;5047991;28;20493;-71
2023/04/23 00:49:33;;;;;;;58.78;21.63;;;8.70;99.90;;;;;;5039640;28;20037;-71
2023/04/23 00:52:01;;;;;;;52.90;22.77;;;8.60;99.90;;;;;;5047087;28;20034;-71
2023/04/23 00:54:27;;;;;;;61.33;24.13;;;8.60;99.90;;;;;;5043414;28;20037;-71
2023/04/23 00:56:57;;;;;;;62.28;22.52;;;8.70;99.90;;;;;;5038978;28;20084;-73
2023/04/23 00:59:26;;;;;;;57.83;22.52;;;8.70;99.90;;;;;;5048269;28;20544;-71
2023/04/23 01:01:53;;;;;;;58.28;22.23;;;8.70;99.90;;;;;;5040988;28;20110;-72
2023/04/23 01:04:20;;;;;;;52.33;22.95;;;8.80;99.90;;;;;;5051114;28;20381;-70
2023/04/23 01:06:46;;;;;;;61.88;22.67;;;8.80;99.90;;;;;;5040675;28;20029;-71
2023/04/23 01:09:17;;;;;;;58.42;22.92;;;8.80;99.90;;;;;;5049249;28;20661;-72
2023/04/23 01:11:43;;;;;;;58.22;23.25;;;8.80;99.90;;;;;;5039146;28;20074;-71
2023/04/23 01:14:10;;;;;;;62.70;24.58;;;8.80;99.90;;;;;;5044853;28;20048;-71
2023/04/23 01:16:37;;;;;;;60.00;23.77;;;8.80;99.90;;;;;;5042808;28;20044;-73
2023/04/23 01:19:05;;;;;;;57.35;22.08;;;8.80;99.90;;;;;;5033521;28;20044;-71
2023/04/23 01:21:33;;;;;;;57.40;22.33;;;8.80;99.90;;;;;;5045444;28;20075;-72
2023/04/23 01:23:58;;;;;;;54.08;21.83;;;8.80;99.90;;;;;;5037218;28;20025;-71
2023/04/23 01:26:24;;;;;;;55.33;23.20;;;8.80;99.90;;;;;;5034061;28;20470;-70
2023/04/23 01:28:51;;;;;;;52.80;21.77;;;8.80;99.90;;;;;;5039357;28;20036;-71
2023/04/23 01:31:17;;;;;;;53.60;20.63;;;8.80;99.90;;;;;;5031148;28;20037;-72
2023/04/23 01:33:43;;;;;;;46.10;19.73;;;8.80;99.90;;;;;;5039796;28;20567;-71
2023/04/23 01:36:09;;;;;;;54.30;22.20;;;8.80;99.90;;;;;;5045086;28;20053;-71
2023/04/23 01:38:38;;;;;;;50.15;20.83;;;8.90;99.90;;;;;;5047776;28;20044;-71
2023/04/23 01:41:04;;;;;;;47.55;20.67;;;8.90;99.90;;;;;;5038465;28;20389;-73
2023/04/23 01:43:30;;;;;;;52.45;19.75;;;8.90;99.90;;;;;;5046732;28;20025;-71
2023/04/23 01:45:59;;;;;;;45.38;20.08;;;8.90;99.90;;;;;;5038678;28;20091;-71
2023/04/23 01:48:25;;;;;;;44.97;19.67;;;9.00;99.90;;;;;;5032787;28;20044;-70
2023/04/23 01:50:51;;;;;;;46.35;18.48;;;9.00;99.90;;;;;;5034836;28;20034;-71
2023/04/23 01:53:17;;;;;;;47.95;17.88;;;9.00;99.90;;;;;;5046932;28;20029;-71
2023/04/23 01:55:46;;;;;;;43.95;18.88;;;9.00;99.90;;;;;;5041870;28;20512;-72
2023/04/23 01:58:12;;;;;;;42.13;17.98;;;9.10;99.90;;;;;;5045280;28;20029;-70
2023/04/23 02:00:37;;;;;;;46.83;17.25;;;9.00;99.90;;;;;;5030639;28;20040;-71
2023/04/23 02:03:03;;;;;;;45.97;18.13;;;9.10;99.90;;;;;;5038080;28;20031;-70
2023/04/23 02:05:29;;;;;;;47.70;18.83;;;9.00;99.90;;;;;;5038584;28;20037;-70
2023/04/23 02:07:55;;;;;;;42.38;17.33;;;9.00;99.90;;;;;;5029503;28;20030;-71
2023/04/23 02:10:21;;;;;;;36.28;15.20;;;9.00;99.90;;;;;;5042354;28;20026;-71
2023/04/23 02:12:47;;;;;;;36.05;15.95;;;9.00;99.90;;;;;;5044349;28;20067;-72
2023/04/23 02:15:14;;;;;;;48.58;18.65;;;9.00;99.90;;;;;;5032035;28;20083;-71
2023/04/23 02:17:40;;;;;;;40.80;17.25;;;9.00;99.90;;;;;;5032514;28;20030;-71
2023/04/23 02:20:10;;;;;;;49.28;18.00;;;8.90;99.90;;;;;;5035260;28;20036;-70
2023/04/23 02:22:40;;;;;;;45.72;18.52;;;9.00;99.90;;;;;;5038772;28;20067;-71
2023/04/23 02:25:07;;;;;;;41.63;16.90;;;9.00;99.90;;;;;;5035008;28;20029;-69
2023/04/23 02:27:33;;;;;;;41.63;16.85;;;9.00;99.90;;;;;;5033885;28;20036;-70
2023/04/23 02:30:07;;;;;;;41.90;17.33;;;9.00;99.90;;;;;;5043242;28;20056;-70
2023/04/23 02:32:32;;;;;;;42.97;17.73;;;9.00;99.90;;;;;;5030076;28;20042;-71
2023/04/23 02:34:58;;;;;;;44.90;16.77;;;9.00;99.90;;;;;;5041890;28;20394;-71
2023/04/23 02:37:27;;;;;;;39.80;17.35;;;8.90;99.90;;;;;;5037190;28;20098;-71
2023/04/23 02:39:55;;;;;;;40.72;16.38;;;8.90;99.90;;;;;;5040758;28;20119;-71
2023/04/23 02:42:21;;;;;;;41.38;16.77;;;9.00;99.90;;;;;;5030094;28;20051;-71
2023/04/23 02:44:46;;;;;;;43.72;18.02;;;9.00;99.90;;;;;;5041574;28;20036;-71
2023/04/23 02:47:12;;;;;;;32.22;15.65;;;9.00;99.90;;;;;;5045681;28;20099;-71
2023/04/23 02:49:38;;;;;;;31.50;14.73;;;9.00;99.90;;;;;;5040874;28;20029;-70
2023/04/23 02:52:03;;;;;;;34.63;14.60;;;9.00;99.90;;;;;;5036161;28;20151;-70
2023/04/23 02:54:31;;;;;;;31.98;13.40;;;9.10;99.90;;;;;;5033848;28;20434;-70
2023/04/23 02:56:57;;;;;;;30.95;13.75;;;9.10;99.90;;;;;;5036113;28;20053;-71
2023/04/23 02:59:22;;;;;;;32.78;14.43;;;9.20;99.90;;;;;;5034591;28;20076;-71
2023/04/23 03:01:48;;;;;;;30.00;13.57;;;9.20;99.90;;;;;;5037942;28;20079;-70
2023/04/23 03:04:17;;;;;;;34.30;14.88;;;9.30;99.90;;;;;;5042949;28;20032;-71
2023/04/23 03:06:46;;;;;;;32.70;13.98;;;9.20;99.90;;;;;;5036804;28;20497;-70
2023/04/23 03:09:12;;;;;;;32.40;13.77;;;9.20;99.90;;;;;;5035883;28;20026;-70
2023/04/23 03:11:38;;;;;;;30.85;14.13;;;9.20;99.90;;;;;;5034661;28;20534;-70
2023/04/23 03:14:03;;;;;;;30.73;13.68;;;9.20;99.90;;;;;;5034674;28;20049;-70
2023/04/23 03:16:30;;;;;;;32.55;14.18;;;9.20;99.90;;;;;;5034605;28;20041;-70
2023/04/23 03:18:56;;;;;;;30.55;13.60;;;9.20;99.90;;;;;;5024765;28;20047;-72
2023/04/23 03:21:21;;;;;;;31.30;14.38;;;9.10;99.90;;;;;;5038997;28;20090;-72
2023/04/23 03:23:47;;;;;;;29.83;13.38;;;9.10;99.90;;;;;;5041518;28;20071;-70
2023/04/23 03:26:15;;;;;;;33.92;14.02;;;9.10;99.90;;;;;;5029571;28;20528;-72
2023/04/23 03:28:41;;;;;;;28.02;13.52;;;9.00;99.90;;;;;;5035471;28;20046;-70
2023/04/23 03:31:12;;;;;;;31.63;14.10;;;9.00;99.90;;;;;;5032418;28;20041;-70
2023/04/23 03:33:38;;;;;;;28.98;12.57;;;9.00;99.90;;;;;;5028496;28;20033;-70
2023/04/23 03:36:04;;;;;;;26.30;11.73;;;9.00;99.90;;;;;;5037219;28;20060;-71
2023/04/23 03:38:32;;;;;;;27.92;13.65;;;9.00;99.90;;;;;;5039706;28;20037;-70
2023/04/23 03:41:01;;;;;;;29.25;13.00;;;8.90;99.90;;;;;;5033786;28;20112;-70
2023/04/23 03:43:26;;;;;;;27.92;13.68;;;8.90;99.90;;;;;;5032573;28;20049;-71
2023/04/23 03:45:55;;;;;;;25.73;12.07;;;8.90;99.90;;;;;;5034974;28;20025;-71
2023/04/23 03:48:21;;;;;;;25.42;11.80;;;8.90;99.90;;;;;;5036554;28;20034;-69
2023/04/23 03:50:46;;;;;;;26.35;12.40;;;8.80;99.90;;;;;;5044797;28;20441;-70
2023/04/23 03:53:18;;;;;;;26.80;11.85;;;8.80;99.90;;;;;;5035044;28;20052;-70
2023/04/23 03:55:43;;;;;;;27.67;12.65;;;8.80;99.90;;;;;;5035113;28;20031;-71
2023/04/23 03:58:12;;;;;;;24.17;12.07;;;8.70;99.90;;;;;;5040735;28;20474;-71
2023/04/23 04:00:37;;;;;;;28.45;13.27;;;8.80;99.90;;;;;;5036278;28;20029;-70
2023/04/23 04:03:03;;;;;;;35.17;13.02;;;8.80;99.90;;;;;;5033160;28;20095;-70
2023/04/23 04:05:29;;;;;;;24.65;11.25;;;8.80;99.90;;;;;;5033604;28;20029;-71
2023/04/23 04:07:54;;;;;;;24.13;12.32;;;8.80;99.90;;;;;;5034315;28;20525;-71
2023/04/23 04:10:20;;;;;;;27.65;12.40;;;8.80;99.90;;;;;;5039155;28;20489;-70
2023/04/23 04:12:48;;;;;;;26.90;12.05;;;8.80;99.90;;;;;;5040301;28;20076;-70
2023/04/23 04:15:16;;;;;;;25.25;11.23;;;8.90;99.90;;;;;;5029424;28;20037;-70
2023/04/23 04:17:44;;;;;;;23.67;12.00;;;8.90;99.90;;;;;;5031531;28;20625;-71
2023/04/23 04:20:10;;;;;;;26.67;12.02;;;8.90;99.90;;;;;;5039580;28;20045;-71
2023/04/23 04:22:39;;;;;;;23.80;12.38;;;8.90;99.90;;;;;;5045916;28;20033;-70
2023/04/23 04:25:05;;;;;;;23.20;11.20;;;8.90;99.90;;;;;;5034188;28;20033;-70
2023/04/23 04:27:34;;;;;;;22.33;10.90;;;8.90;99.90;;;;;;5038645;28;20497;-71
2023/04/23 04:30:00;;;;;;;20.90;10.38;;;8.90;99.90;;;;;;5026756;28;20544;-70
2023/04/23 04:32:27;;;;;;;23.92;11.48;;;8.90;99.90;;;;;;5027663;28;20521;-70
2023/04/23 04:34:52;;;;;;;25.77;12.07;;;8.90;99.90;;;;;;5028709;28;20033;-71
2023/04/23 04:37:20;;;;;;;22.83;11.35;;;8.90;99.90;;;;;;5029360;28;20044;-71
2023/04/23 04:39:45;;;;;;;21.65;10.13;;;8.90;99.90;;;;;;5032111;28;20033;-69
2023/04/23 04:42:11;;;;;;;22.98;11.57;;;8.90;99.90;;;;;;5037366;28;20543;-70
2023/04/23 04:44:37;;;;;;;22.13;11.18;;;8.80;99.90;;;;;;5036120;28;20029;-69
2023/04/23 04:47:04;;;;;;;20.98;11.23;;;8.80;99.90;;;;;;5027858;28;20028;-71
2023/04/23 04:49:29;;;;;;;20.63;11.25;;;8.80;99.90;;;;;;5043296;28;20100;-71
2023/04/23 04:51:55;;;;;;;22.98;11.43;;;8.70;99.90;;;;;;5033480;28;20072;-72
2023/04/23 04:54:21;;;;;;;24.15;10.80;;;8.70;99.90;;;;;;5035405;28;20041;-73
2023/04/23 04:56:49;;;;;;;23.55;10.80;;;8.70;99.90;;;;;;5033178;28;20498;-71
2023/04/23 04:59:15;;;;;;;21.70;11.15;;;8.70;99.90;;;;;;5031759;28;20029;-70
2023/04/23 05:01:41;;;;;;;21.35;11.00;;;8.70;99.90;;;;;;5028734;28;20121;-71
2023/04/23 05:04:06;;;;;;;23.25;10.82;;;8.70;99.90;;;;;;5039335;28;20036;-69
2023/04/23 05:06:32;;;;;;;24.23;11.52;;;8.70;99.90;;;;;;5033927;28;20037;-70
2023/04/23 05:08:58;;;;;;;23.75;10.95;;;8.80;99.90;;;;;;5036795;28;20025;-71
2023/04/23 05:11:23;;;;;;;21.98;10.60;;;8.80;99.90;;;;;;5039359;28;20147;-70
2023/04/23 05:13:50;;;;;;;23.73;11.32;;;8.80;99.90;;;;;;5033916;28;20032;-70
2023/04/23 05:16:18;;;;;;;23.38;10.48;;;8.80;99.90;;;;;;5041799;28;20110;-71
2023/04/23 05:18:53;;;;;;;22.33;10.55;;;8.80;99.90;;;;;;5037062;28;20056;-70
2023/04/23 05:21:28;;;;;;;25.95;10.70;;;8.90;99.90;;;;;;5037737;28;20123;-74
2023/04/23 05:23:54;;;;;;;20.77;11.10;;;8.90;99.90;;;;;;5040364;28;20017;-71
2023/04/23 05:26:20;;;;;;;18.73;10.45;;;9.00;99.90;;;;;;5036355;28;20038;-72
2023/04/23 05:28:45;;;;;;;21.17;10.48;;;9.00;99.90;;;;;;5031014;28;20497;-72
2023/04/23 05:31:11;;;;;;;21.08;9.20;;;9.00;99.90;;;;;;5035819;28;20049;-70
2023/04/23 05:33:37;;;;;;;19.15;9.82;;;9.10;99.90;;;;;;5042440;28;20445;-73
2023/04/23 05:36:03;;;;;;;20.42;10.27;;;9.10;99.90;;;;;;5035197;28;20050;-71
2023/04/23 05:38:29;;;;;;;18.00;9.98;;;9.20;99.90;;;;;;5040243;28;20033;-71
2023/04/23 05:40:57;;;;;;;22.42;10.48;;;9.30;99.90;;;;;;5039605;28;20028;-70
2023/04/23 05:43:29;;;;;;;17.13;8.88;;;9.40;99.90;;;;;;5042307;28;20045;-72
2023/04/23 05:45:54;;;;;;;17.63;8.38;;;9.40;99.90;;;;;;5032785;28;20034;-70
2023/04/23 05:48:20;;;;;;;18.83;9.20;;;9.50;99.90;;;;;;5040878;28;20041;-70
2023/04/23 05:50:48;;;;;;;16.13;7.80;;;9.60;99.90;;;;;;5045355;28;20034;-71
2023/04/23 05:53:13;;;;;;;18.63;8.40;;;9.80;99.90;;;;;;5040592;28;20550;-70
2023/04/23 05:55:39;;;;;;;13.85;7.72;;;10.50;99.90;;;;;;5036739;28;20036;-73
2023/04/23 05:58:05;;;;;;;12.02;6.78;;;11.40;99.90;;;;;;5032962;28;20033;-71
2023/04/23 06:00:34;;;;;;;12.40;6.38;;;12.50;99.90;;;;;;5039521;28;20481;-70
2023/04/23 06:02:59;;;;;;;11.93;6.35;;;13.50;99.90;;;;;;5030527;28;20440;-71
2023/04/23 06:05:25;;;;;;;12.15;5.95;;;14.20;99.90;;;;;;5042303;28;20041;-71
2023/04/23 06:07:51;;;;;;;9.93;5.20;;;14.70;99.90;;;;;;5037064;28;20029;-71
2023/04/23 06:10:16;;;;;;;9.57;5.22;;;15.30;99.90;;;;;;5031440;28;20144;-72
2023/04/23 06:12:42;;;;;;;12.23;4.63;;;15.70;99.90;;;;;;5026900;28;20090;-72
2023/04/23 06:15:08;;;;;;;7.57;4.53;;;16.40;99.90;;;;;;5032927;28;20037;-72
2023/04/23 06:17:35;;;;;;;7.63;4.72;;;17.00;99.90;;;;;;5034562;28;20037;-71
2023/04/23 06:20:01;;;;;;;7.18;4.22;;;17.60;99.90;;;;;;5037566;28;20498;-72
2023/04/23 06:22:26;;;;;;;7.65;4.43;;;18.10;99.90;;;;;;5042051;28;20493;-70
2023/04/23 06:24:52;;;;;;;6.53;4.10;;;18.40;99.90;;;;;;5032253;28;20069;-71
2023/04/23 06:27:18;;;;;;;7.50;4.53;;;18.90;99.90;;;;;;5036391;28;20532;-70
2023/04/23 06:29:43;;;;;;;5.82;3.60;;;19.40;99.90;;;;;;5038549;28;20543;-70
2023/04/23 06:32:09;;;;;;;5.13;3.40;;;19.90;99.90;;;;;;5031032;28;20064;-72
2023/04/23 06:34:35;;;;;;;5.95;4.03;;;20.30;99.90;;;;;;5036453;28;20037;-72
2023/04/23 06:37:00;;;;;;;4.95;3.38;;;20.70;99.90;;;;;;5033501;28;20420;-72
2023/04/23 06:39:26;;;;;;;6.15;3.83;;;21.20;99.90;;;;;;5032649;28;20041;-71
2023/04/23 06:41:52;;;;;;;5.47;3.28;;;21.30;99.90;;;;;;5034184;28;20370;-72
2023/04/23 06:44:17;;;;;;;6.13;3.55;;;21.40;99.90;;;;;;5032169;28;20053;-71
2023/04/23 06:46:43;;;;;;;6.57;3.42;;;21.80;99.90;;;;;;5031269;28;20102;-72
2023/04/23 06:49:08;;;;;;;5.40;3.75;;;22.10;99.90;;;;;;5050559;28;20040;-71
2023/04/23 06:51:34;;;;;;;7.38;4.43;;;22.50;99.90;;;;;;5031866;28;20029;-70
2023/04/23 06:54:05;;;;;;;6.88;4.07;;;23.00;99.40;;;;;;5042065;28;20040;-70
2023/04/23 06:56:34;;;;;;;5.50;3.90;;;23.20;99.10;;;;;;5040440;28;20093;-70
2023/04/23 06:59:00;;;;;;;9.73;3.70;;;23.10;98.30;;;;;;5040878;28;20029;-70
2023/04/23 07:01:28;;;;;;;7.78;4.18;;;23.20;98.60;;;;;;5035523;28;20086;-70
2023/04/23 07:03:54;;;;;;;5.13;3.88;;;23.10;98.30;;;;;;5042623;28;20037;-70
2023/04/23 07:06:26;;;;;;;6.30;4.00;;;23.00;97.60;;;;;;5036023;28;20040;-70
2023/04/23 07:08:52;;;;;;;7.97;4.03;;;22.90;97.60;;;;;;5030625;28;20033;-71
2023/04/23 07:11:20;;;;;;;5.50;3.50;;;22.10;98.20;;;;;;5033100;28;20039;-73
2023/04/23 07:13:46;;;;;;;4.93;3.05;;;21.70;98.60;;;;;;5033473;28;20110;-71
2023/04/23 07:16:15;;;;;;;4.57;2.85;;;20.90;99.10;;;;;;5029686;28;20508;-71
2023/04/23 07:18:49;;;;;;;6.13;3.20;;;20.00;99.90;;;;;;5038597;28;20029;-71
2023/04/23 07:21:15;;;;;;;4.93;2.78;;;19.20;99.90;;;;;;5032948;28;20738;-72
2023/04/23 07:23:40;;;;;;;5.78;2.85;;;18.70;99.90;;;;;;5022234;28;20037;-70
2023/04/23 07:26:06;;;;;;;5.03;2.83;;;18.40;99.90;;;;;;5024659;28;20057;-71
2023/04/23 07:28:31;;;;;;;5.95;3.17;;;18.00;99.90;;;;;;5034905;28;20033;-70
2023/04/23 07:30:57;;;;;;;7.25;3.80;;;17.80;99.90;;;;;;5023157;28;20090;-70
2023/04/23 07:33:24;;;;;;;5.13;2.75;;;17.60;99.90;;;;;;5032848;28;20037;-71
2023/04/23 07:35:49;;;;;;;5.45;2.45;;;17.40;99.90;;;;;;5035459;28;20025;-71
2023/04/23 07:38:15;;;;;;;4.13;2.60;;;17.30;99.90;;;;;;5036727;28;20038;-72
2023/04/23 07:40:41;;;;;;;4.57;2.22;;;17.10;99.90;;;;;;5037547;28;20562;-70
2023/04/23 07:43:06;;;;;;;12.35;2.90;;;17.00;99.90;;;;;;5029839;28;20029;-70
2023/04/23 07:45:32;;;;;;;4.60;2.50;;;17.00;99.90;;;;;;5034687;28;20705;-71
2023/04/23 07:47:58;;;;;;;8.52;3.13;;;16.90;99.90;;;;;;5040930;28;20036;-70
2023/04/23 07:50:28;;;;;;;8.55;2.30;;;16.80;99.90;;;;;;5027826;28;20035;-72
2023/04/23 07:52:53;;;;;;;4.28;1.73;;;16.80;99.90;;;;;;5023475;28;20486;-70
2023/04/23 07:55:22;;;;;;;7.65;2.75;;;16.80;99.90;;;;;;5027322;28;20084;-71
2023/04/23 07:57:48;;;;;;;8.02;2.83;;;16.70;99.90;;;;;;5032717;28;20444;-70
2023/04/23 08:00:14;;;;;;;7.68;2.42;;;16.70;99.90;;;;;;5032435;28;20040;-71
2023/04/23 08:02:39;;;;;;;5.03;2.25;;;16.80;99.90;;;;;;5031576;28;20030;-71
2023/04/23 08:05:11;;;;;;;6.30;2.05;;;16.80;99.90;;;;;;5025519;28;20371;-70
2023/04/23 08:07:36;;;;;;;8.23;2.47;;;16.90;99.90;;;;;;5053952;28;20048;-71
2023/04/23 08:10:04;;;;;;;5.00;2.67;;;16.90;99.90;;;;;;5030485;28;20040;-69
2023/04/23 08:12:34;;;;;;;9.93;2.85;;;17.00;99.90;;;;;;5035554;28;20748;-70
2023/04/23 08:15:00;;;;;;;7.20;2.38;;;17.20;99.90;;;;;;5030224;28;20037;-71
2023/04/23 08:17:26;;;;;;;6.65;2.53;;;17.20;99.90;;;;;;5027745;28;20029;-72
2023/04/23 08:19:52;;;;;;;6.22;1.75;;;17.20;99.90;;;;;;5026284;28;20029;-70
2023/04/23 08:22:17;;;;;;;7.55;2.17;;;17.30;99.90;;;;;;5032825;28;20052;-71
2023/04/23 08:24:44;;;;;;;8.15;2.28;;;17.30;99.90;;;;;;5032495;28;20124;-70
2023/04/23 08:27:10;;;;;;;5.38;1.77;;;17.30;99.90;;;;;;5034992;28;20077;-70
2023/04/23 08:29:35;;;;;;;7.65;2.15;;;17.40;99.90;;;;;;5034999;28;20115;-71
2023/04/23 08:32:01;;;;;;;9.00;2.75;;;17.40;99.90;;;;;;5029619;28;20037;-70
2023/04/23 08:34:26;;;;;;;8.65;2.13;;;17.40;99.90;;;;;;5030209;28;20035;-70
2023/04/23 08:36:53;;;;;;;7.00;1.88;;;17.40;99.90;;;;;;5026940;28;20021;-70
2023/04/23 08:39:18;;;;;;;6.88;2.10;;;17.50;99.90;;;;;;5037671;28;20123;-71
2023/04/23 08:41:51;;;;;;;17.75;2.25;;;17.60;99.90;;;;;;5036247;28;20136;-70
2023/04/23 08:44:18;;;;;;;6.03;2.42;;;17.60;99.90;;;;;;5037815;28;20551;-71
2023/04/23 08:46:44;;;;;;;8.15;1.58;;;17.70;99.90;;;;;;5037040;28;20031;-70
2023/04/23 08:49:16;;;;;;;5.38;1.63;;;17.80;99.90;;;;;;5038102;28;20037;-70
2023/04/23 08:51:51;;;;;;;7.05;1.98;;;18.00;99.90;;;;;;5033599;28;20116;-70
2023/04/23 08:54:33;;;;;;;11.98;2.05;;;18.10;99.90;;;;;;5032935;28;20033;-72
2023/04/23 08:56:59;;;;;;;10.02;2.00;;;18.10;99.90;;;;;;5034796;28;20098;-70
2023/04/23 08:59:27;;;;;;;10.05;1.83;;;18.00;99.90;;;;;;5032117;28;20037;-70
2023/04/23 09:01:54;;;;;;;4.88;1.67;;;18.10;99.90;;;;;;5038229;28;20143;-72
2023/04/23 09:04:24;;;;;;;9.00;1.88;;;18.10;99.90;;;;;;5030008;28;20573;-71
2023/04/23 09:06:51;;;;;;;10.85;2.65;;;18.10;99.90;;;;;;5029295;28;20409;-71
2023/04/23 09:09:22;;;;;;;4.65;1.35;;;18.10;99.90;;;;;;5037397;28;20033;-71
2023/04/23 09:11:50;;;;;;;6.10;1.42;;;18.10;99.90;;;;;;5039318;28;20083;-70
2023/04/23 09:14:16;;;;;;;5.68;1.95;;;18.30;99.90;;;;;;5032791;28;20026;-72
2023/04/23 09:16:43;;;;;;;6.63;1.65;;;18.50;99.90;;;;;;5030291;28;20604;-72
2023/04/23 09:19:09;;;;;;;6.35;2.15;;;18.60;99.90;;;;;;5030377;28;20626;-71
2023/04/23 09:21:37;;;;;;;6.38;1.67;;;18.50;99.90;;;;;;5034895;28;20571;-70
2023/04/23 09:24:04;;;;;;;6.90;2.58;;;18.60;99.90;;;;;;5037033;28;20037;-72
2023/04/23 09:26:30;;;;;;;8.52;2.33;;;18.70;99.90;;;;;;5032600;28;20679;-71
2023/04/23 09:28:55;;;;;;;6.05;1.30;;;18.80;99.90;;;;;;5030920;28;20067;-72
2023/04/23 09:31:22;;;;;;;6.35;1.80;;;18.70;99.90;;;;;;5032753;28;20033;-69
2023/04/23 09:33:52;;;;;;;9.13;2.17;;;18.50;99.90;;;;;;5038233;28;20026;-70
2023/04/23 09:36:27;;;;;;;3.50;1.38;;;18.50;99.90;;;;;;5029726;28;20025;-69
2023/04/23 09:38:56;;;;;;;6.30;2.13;;;18.40;99.90;;;;;;5036738;28;20127;-70
2023/04/23 09:41:26;;;;;;;5.65;1.45;;;18.20;99.90;;;;;;5039168;28;20123;-70
2023/04/23 09:43:53;;;;;;;4.68;1.00;;;18.20;99.90;;;;;;5038442;28;20045;-70
2023/04/23 09:46:52;;;;;;;4.05;1.38;;;18.10;99.90;;;;;;5032863;28;20087;-70
2023/04/23 09:49:28;;;;;;;6.07;1.45;;;18.10;99.90;;;;;;5005830;28;20040;-70
2023/04/23 09:51:54;;;;;;;6.72;1.35;;;18.10;99.90;;;;;;5035425;28;20039;-70
2023/04/23 09:54:21;;;;;;;12.02;1.45;;;18.10;99.90;;;;;;5034048;28;20038;-70
2023/04/23 09:56:59;;;;;;;4.32;1.25;;;18.40;99.90;;;;;;5033487;28;20036;-70
2023/04/23 09:59:27;;;;;;;3.42;1.00;;;18.60;99.90;;;;;;5035550;28;20033;-69
2023/04/23 10:01:54;;;;;;;3.53;1.05;;;18.90;99.90;;;;;;5033870;28;20028;-71
2023/04/23 10:04:24;;;;;;;8.10;1.10;;;18.90;99.90;;;;;;5044104;28;20033;-70
2023/04/23 10:06:54;;;;;;;4.75;1.42;;;19.10;99.90;;;;;;5027446;28;20080;-70
2023/04/23 10:09:27;;;;;;;;;;;19.20;99.90;;;;;;5036276;28;20041;-71
2023/04/23 10:11:55;;;;;;;4.75;0.93;;;19.20;99.90;;;;;;5035375;28;19917;-70
2023/04/23 10:14:22;;;;;;;5.13;1.45;;;19.30;99.90;;;;;;5027990;28;20057;-72
2023/04/23 10:16:50;;;;;;;4.07;0.77;;;19.10;99.90;;;;;;5042502;28;20044;-70
2023/04/23 10:19:24;;;;;;;6.82;1.08;;;18.90;99.90;;;;;;5040500;28;20040;-70
2023/04/23 10:22:04;;;;;;;12.02;1.00;;;18.80;99.90;;;;;;5029353;28;20037;-71
2023/04/23 10:24:40;;;;;;;7.05;1.23;;;18.60;99.90;;;;;;5031717;28;20048;-71
2023/04/23 10:27:10;;;;;;;7.47;1.40;;;18.70;99.90;;;;;;5038930;28;20040;-72
2023/04/23 10:29:37;;;;;;;3.45;0.77;;;18.80;99.90;;;;;;5033471;28;20063;-70
2023/04/23 10:32:05;;;;;;;8.07;1.25;;;18.80;99.90;;;;;;5029765;28;20041;-71
2023/04/23 10:34:31;;;;;;;2.17;0.65;;;18.80;99.90;;;;;;5035474;28;20037;-70
2023/04/23 10:36:59;;;;;;;2.45;0.70;;;18.90;99.90;;;;;;5027313;28;20131;-70
2023/04/23 10:39:27;;;;;;;3.25;0.77;;;19.00;99.90;;;;;;5035454;28;20033;-70
2023/04/23 10:41:54;;;;;;;4.97;1.15;;;19.00;99.90;;;;;;5029118;28;20025;-71
2023/04/23 10:44:23;;;;;;;8.60;0.68;;;19.00;99.90;;;;;;5040314;28;20027;-70
2023/04/23 10:46:56;;;;;;;3.35;0.93;;;19.10;99.90;;;;;;5035866;28;20036;-72
2023/04/23 10:49:34;;;;;;;3.60;0.68;;;19.00;99.90;;;;;;5033247;28;20515;-71
2023/04/23 10:52:08;;;;;;;3.33;0.88;;;19.00;99.90;;;;;;5041291;28;20141;-71
2023/04/23 10:54:36;;;;;;;5.55;1.00;;;18.90;99.90;;;;;;5042161;28;20044;-71
2023/04/23 10:57:06;;;;;;;6.70;1.33;;;18.90;99.90;;;;;;5027515;28;20155;-70
2023/04/23 10:59:38;;;;;;;5.00;0.52;;;18.80;99.90;;;;;;5029011;28;20041;-70
2023/04/23 11:02:08;;;;;;;3.42;0.50;;;18.90;99.90;;;;;;5027643;28;20091;-70
2023/04/23 11:04:34;;;;;;;;;;;19.00;99.90;;;;;;5029510;28;20131;-70
2023/04/23 11:07:05;;;;;;;3.58;0.68;;;19.00;99.90;;;;;;5030417;28;19912;-71
2023/04/23 11:09:33;;;;;;;;;;;19.00;99.90;;;;;;5040515;28;20071;-70
2023/04/23 11:12:00;;;;;;;4.65;0.80;;;19.00;99.90;;;;;;5035456;28;19979;-70
2023/04/23 11:14:55;;;;;;;4.95;1.48;;;19.00;99.90;;;;;;5031681;28;20270;-71
2023/04/23 11:17:23;;;;;;;7.43;1.38;;;19.00;99.90;;;;;;5026445;28;20043;-72
2023/04/23 11:20:12;;;;;;;4.43;0.55;;;19.10;99.90;;;;;;5030839;28;20040;-70
2023/04/23 11:22:43;;;;;;;5.00;1.10;;;19.20;99.90;;;;;;5028742;28;20041;-71
2023/04/23 11:25:10;;;;;;;7.07;2.60;;;19.00;99.90;;;;;;5037213;28;20029;-70
2023/04/23 11:27:43;;;;;;;3.78;1.42;;;19.00;99.90;;;;;;5037638;28;20037;-72
2023/04/23 11:30:19;;;;;;;4.03;0.63;;;19.20;99.70;;;;;;5030254;28;20053;-72
2023/04/23 11:32:49;;;;;;;5.63;1.38;;;19.20;99.90;;;;;;5026359;28;20441;-71
2023/04/23 11:35:22;;;;;;;;;;;19.30;99.40;;;;;;5032057;28;20045;-69
2023/04/23 11:37:48;;;;;;;3.95;0.43;;;19.40;99.30;;;;;;5033089;28;19982;-70
2023/04/23 11:40:23;;;;;;;4.97;0.85;;;19.40;98.60;;;;;;5023695;28;20044;-71
2023/04/23 11:42:49;;;;;;;5.10;1.30;;;19.40;98.80;;;;;;5031244;28;20460;-69
2023/04/23 11:45:23;;;;;;;14.60;1.05;;;19.40;98.70;;;;;;5029637;28;20029;-72
2023/04/23 11:47:54;;;;;;;4.72;1.00;;;19.40;99.10;;;;;;5028748;28;20524;-72
2023/04/23 11:50:29;;;;;;;5.15;1.10;;;19.30;98.40;;;;;;5031552;28;20805;-70
2023/04/23 11:52:55;;;;;;;7.05;1.83;;;19.20;99.00;;;;;;5030249;28;20044;-70
2023/04/23 11:55:21;;;;;;;4.50;0.90;;;19.30;99.00;;;;;;5034814;28;20072;-70
2023/04/23 11:57:49;;;;;;;7.18;1.05;;;19.30;98.60;;;;;;5032429;28;20099;-71
2023/04/23 12:00:20;;;;;;;7.13;1.15;;;19.30;98.60;;;;;;5027597;28;20090;-71
2023/04/23 12:02:59;;;;;;;5.70;0.77;;;19.20;98.90;;;;;;5035180;28;20394;-70
2023/04/23 12:05:30;;;;;;;3.67;0.68;;;19.20;98.90;;;;;;5035018;28;20072;-72
2023/04/23 12:08:10;;;;;;;2.25;0.40;;;19.10;99.20;;;;;;5027827;28;20064;-70
2023/04/23 12:11:00;;;;;;;2.08;0.40;;;19.00;99.40;;;;;;5024261;28;20521;-72
2023/04/23 12:13:30;;;;;;;6.05;0.52;;;19.20;99.10;;;;;;5030947;28;20040;-70
2023/04/23 12:15:58;;;;;;;9.02;0.63;;;19.20;99.10;;;;;;5027457;28;20371;-71
2023/04/23 12:18:38;;;;;;;3.85;0.45;;;19.30;98.60;;;;;;5034552;28;20747;-71
2023/04/23 12:21:13;;;;;;;4.78;0.60;;;19.20;98.60;;;;;;5025149;28;20712;-72
2023/04/23 12:23:40;;;;;;;6.47;0.82;;;19.30;98.90;;;;;;5034302;28;20501;-71
2023/04/23 12:26:14;;;;;;;1.05;0.20;;;19.30;98.40;;;;;;5023224;28;20029;-71
2023/04/23 12:28:53;;;;;;;1.48;0.20;;;19.50;98.00;;;;;;5024528;28;20026;-70
2023/04/23 12:31:24;;;;;;;4.18;0.70;;;19.60;98.40;;;;;;5033391;28;20494;-71
2023/04/23 12:34:16;;;;;;;4.88;0.68;;;19.70;98.40;;;;;;5026220;28;20026;-70
2023/04/23 12:36:46;;;;;;;2.45;0.60;;;19.70;98.40;;;;;;5013128;28;20048;-70
2023/04/23 12:39:24;;;;;;;1.48;0.50;;;19.80;98.80;;;;;;5024720;28;20100;-70
2023/04/23 12:42:01;;;;;;;1.67;0.45;;;19.80;98.20;;;;;;5033401;28;20077;-71
2023/04/23 12:44:28;;;;;;;3.53;0.80;;;19.60;98.50;;;;;;5028681;28;20041;-69
2023/04/23 12:47:06;;;;;;;4.50;0.75;;;19.60;98.40;;;;;;5033226;28;20489;-70
2023/04/23 12:49:32;;;;;;;3.13;0.75;;;19.50;98.30;;;;;;5036421;28;20037;-72